createdAt,value
2023-11-15T00:01:30.753Z,5.32
2023-11-15T00:03:58.295Z,4.88
2023-11-15T00:06:26.022Z,5.10
2023-11-15T00:08:53.954Z,5.57
2023-11-15T00:11:21.542Z,4.68
2023-11-15T00:13:52.462Z,4.68
2023-11-15T00:16:20.118Z,5.32
2023-11-15T00:18:47.680Z,5.03
2023-11-15T00:21:16.007Z,4.63
2023-11-15T00:23:43.662Z,4.72
2023-11-15T00:26:11.237Z,4.78
2023-11-15T00:28:44.414Z,4.00
2023-11-15T00:31:12.282Z,4.68
2023-11-15T00:33:40.183Z,5.03
2023-11-15T00:36:13.047Z,5.10
2023-11-15T00:38:40.675Z,4.63
2023-11-15T00:41:09.794Z,4.97
2023-11-15T00:43:37.262Z,4.90
2023-11-15T00:46:05.630Z,5.55
2023-11-15T00:48:33.752Z,5.05
2023-11-15T00:51:01.397Z,5.25
2023-11-15T00:53:29.000Z,4.63
2023-11-15T00:55:56.620Z,5.70
2023-11-15T00:58:29.800Z,5.15
2023-11-15T01:01:01.129Z,5.55
2023-11-15T01:03:29.189Z,5.55
2023-11-15T01:05:57.551Z,5.15
2023-11-15T01:08:25.347Z,5.22
2023-11-15T01:10:54.707Z,5.40
2023-11-15T01:13:22.772Z,4.90
2023-11-15T01:15:52.288Z,4.85
2023-11-15T01:18:22.226Z,5.47
2023-11-15T01:20:51.424Z,5.28
2023-11-15T01:23:19.218Z,5.35
2023-11-15T01:25:46.962Z,5.40
2023-11-15T01:28:14.617Z,5.40
2023-11-15T01:30:42.320Z,5.10
2023-11-15T01:33:11.395Z,5.10
2023-11-15T01:35:39.271Z,4.72
2023-11-15T01:38:06.844Z,4.82
2023-11-15T01:40:35.962Z,5.15
2023-11-15T01:43:03.618Z,4.38
2023-11-15T01:45:31.348Z,4.85
2023-11-15T01:47:59.149Z,4.75
2023-11-15T01:50:26.753Z,5.47
2023-11-15T01:52:54.353Z,4.55
2023-11-15T01:55:22.511Z,5.88
2023-11-15T01:57:51.730Z,5.78
2023-11-15T02:00:19.713Z,5.03
2023-11-15T02:02:47.428Z,4.47
2023-11-15T02:05:16.035Z,5.60
2023-11-15T02:07:44.328Z,5.00
2023-11-15T02:10:14.858Z,4.90
2023-11-15T02:12:43.199Z,4.95
2023-11-15T02:15:11.428Z,5.30
2023-11-15T02:17:40.522Z,4.35
2023-11-15T02:20:10.005Z,4.93
2023-11-15T02:22:53.802Z,5.18
2023-11-15T02:25:22.592Z,4.97
2023-11-15T02:27:50.163Z,5.13
2023-11-15T02:30:17.803Z,5.10
2023-11-15T02:32:45.598Z,4.95
2023-11-15T02:35:13.271Z,5.22
2023-11-15T02:37:42.638Z,5.35
2023-11-15T02:40:12.313Z,4.63
2023-11-15T02:42:40.028Z,4.90
2023-11-15T02:45:08.106Z,5.00
2023-11-15T02:47:35.845Z,4.55
2023-11-15T02:50:03.796Z,4.75
2023-11-15T02:52:33.369Z,4.50
2023-11-15T02:55:01.108Z,4.10
2023-11-15T02:57:28.825Z,4.93
2023-11-15T02:59:56.407Z,4.82
2023-11-15T03:02:23.939Z,4.38
2023-11-15T03:04:51.684Z,5.10
2023-11-15T03:07:19.311Z,5.60
2023-11-15T03:09:46.931Z,6.43
2023-11-15T03:12:15.093Z,5.18
2023-11-15T03:14:42.740Z,4.93
2023-11-15T03:17:18.726Z,5.53
2023-11-15T03:19:46.749Z,5.20
2023-11-15T03:22:14.303Z,4.50
2023-11-15T03:24:44.022Z,4.82
2023-11-15T03:27:11.683Z,4.97
2023-11-15T03:29:39.297Z,4.80
2023-11-15T03:32:07.232Z,4.72
2023-11-15T03:34:36.967Z,4.80
2023-11-15T03:37:06.059Z,5.10
2023-11-15T03:39:34.284Z,10.68
2023-11-15T03:42:04.077Z,14.05
2023-11-15T03:44:31.796Z,12.43
2023-11-15T03:46:59.678Z,11.80
2023-11-15T03:49:27.414Z,11.15
2023-11-15T03:51:55.525Z,11.23
2023-11-15T03:54:23.393Z,11.98
2023-11-15T03:56:51.818Z,11.93
2023-11-15T03:59:20.705Z,14.38
2023-11-15T04:01:55.294Z,13.65
2023-11-15T04:04:27.021Z,13.52
2023-11-15T04:06:54.851Z,14.93
2023-11-15T04:09:22.389Z,14.43
2023-11-15T04:11:50.874Z,12.45
2023-11-15T04:14:18.754Z,12.10
2023-11-15T04:16:46.368Z,11.07
2023-11-15T04:19:14.063Z,10.38
2023-11-15T04:21:41.653Z,6.95
2023-11-15T04:24:09.729Z,5.68
2023-11-15T04:26:39.144Z,5.88
2023-11-15T04:29:06.794Z,5.43
2023-11-15T04:31:36.887Z,5.90
2023-11-15T04:34:04.828Z,5.47
2023-11-15T04:36:40.781Z,4.90
2023-11-15T04:39:11.983Z,5.03
2023-11-15T04:41:39.994Z,5.53
2023-11-15T04:44:07.628Z,5.10
2023-11-15T04:46:36.510Z,5.07
2023-11-15T04:49:08.371Z,5.18
2023-11-15T04:51:35.944Z,5.38
2023-11-15T04:54:04.928Z,4.95
2023-11-15T04:56:32.823Z,5.65
2023-11-15T04:59:00.374Z,5.53
2023-11-15T05:01:27.964Z,4.78
2023-11-15T05:03:55.744Z,5.40
2023-11-15T05:06:23.579Z,5.85
2023-11-15T05:08:51.315Z,5.25
2023-11-15T05:11:18.881Z,5.43
2023-11-15T05:13:46.416Z,5.60
2023-11-15T05:16:14.017Z,5.50
2023-11-15T05:18:41.833Z,5.18
2023-11-15T05:21:09.480Z,5.40
2023-11-15T05:23:37.082Z,5.95
2023-11-15T05:26:04.874Z,6.00
2023-11-15T05:28:32.415Z,5.60
2023-11-15T05:31:00.021Z,5.88
2023-11-15T05:33:27.753Z,5.18
2023-11-15T05:35:55.369Z,5.45
2023-11-15T05:38:22.952Z,4.72
2023-11-15T05:40:51.127Z,5.53
2023-11-15T05:43:18.634Z,6.22
2023-11-15T05:45:46.284Z,6.30
2023-11-15T05:48:14.599Z,5.65
2023-11-15T05:50:42.158Z,5.57
2023-11-15T05:53:10.731Z,6.85
2023-11-15T05:55:38.498Z,7.25
2023-11-15T05:58:06.190Z,6.57
2023-11-15T06:00:33.832Z,5.80
2023-11-15T06:03:01.651Z,8.32
2023-11-15T06:05:30.886Z,6.82
2023-11-15T06:07:59.034Z,6.15
2023-11-15T06:10:28.502Z,7.00
2023-11-15T06:12:57.101Z,6.18
2023-11-15T06:15:25.086Z,6.05
2023-11-15T06:17:54.102Z,6.43
2023-11-15T06:20:21.799Z,6.38
2023-11-15T06:22:49.325Z,7.13
2023-11-15T06:25:20.504Z,6.15
2023-11-15T06:27:48.459Z,6.85
2023-11-15T06:30:18.632Z,6.82
2023-11-15T06:32:46.543Z,6.50
2023-11-15T06:35:20.402Z,6.65
2023-11-15T06:37:50.091Z,6.00
2023-11-15T06:40:18.226Z,5.90
2023-11-15T06:42:46.060Z,7.35
2023-11-15T06:45:14.026Z,7.85
2023-11-15T06:47:44.012Z,9.68
2023-11-15T06:50:12.016Z,8.40
2023-11-15T06:52:39.985Z,8.48
2023-11-15T06:55:12.640Z,7.85
2023-11-15T06:57:42.936Z,8.30
2023-11-15T07:00:13.048Z,7.88
2023-11-15T07:02:43.067Z,8.00
2023-11-15T07:05:12.229Z,9.15
2023-11-15T07:07:40.339Z,9.38
2023-11-15T07:10:08.607Z,8.68
2023-11-15T07:12:37.392Z,7.32
2023-11-15T07:15:05.990Z,6.97
2023-11-15T07:17:34.324Z,6.88
2023-11-15T07:20:02.656Z,7.63
2023-11-15T07:22:31.437Z,6.57
2023-11-15T07:25:02.420Z,7.97
2023-11-15T07:27:35.835Z,7.82
2023-11-15T07:30:03.613Z,10.30
2023-11-15T07:32:33.129Z,10.65
2023-11-15T07:35:00.753Z,14.52
2023-11-15T07:37:28.305Z,18.73
2023-11-15T07:39:55.936Z,22.50
2023-11-15T07:42:23.541Z,14.10
2023-11-15T07:44:52.527Z,8.50
2023-11-15T07:47:20.149Z,7.85
2023-11-15T07:49:47.802Z,13.63
2023-11-15T07:52:15.327Z,9.65
2023-11-15T07:54:42.840Z,9.98
2023-11-15T07:57:10.441Z,9.77
2023-11-15T07:59:39.521Z,9.10
2023-11-15T08:02:07.366Z,9.90
2023-11-15T08:04:35.137Z,9.00
2023-11-15T08:07:02.783Z,10.32
2023-11-15T08:09:33.922Z,8.82
2023-11-15T08:12:02.730Z,11.05
2023-11-15T08:14:33.335Z,10.85
2023-11-15T08:17:03.003Z,10.70
2023-11-15T08:19:30.703Z,9.75
2023-11-15T08:21:58.517Z,9.30
2023-11-15T08:24:26.845Z,9.45
2023-11-15T08:26:56.088Z,8.27
2023-11-15T08:29:24.051Z,8.48
2023-11-15T08:31:52.065Z,8.88
2023-11-15T08:34:24.041Z,7.80
2023-11-15T08:36:53.129Z,7.85
2023-11-15T08:39:24.170Z,8.43
2023-11-15T08:41:51.932Z,7.65
2023-11-15T08:44:19.654Z,8.32
2023-11-15T08:46:49.453Z,7.60
2023-11-15T08:49:17.939Z,7.95
2023-11-15T08:51:48.810Z,8.75
2023-11-15T08:54:17.681Z,8.52
2023-11-15T08:56:47.042Z,7.45
2023-11-15T08:59:16.818Z,7.25
2023-11-15T09:01:46.727Z,7.93
2023-11-15T09:04:17.972Z,9.10
2023-11-15T09:06:49.163Z,9.93
2023-11-15T09:09:18.982Z,9.55
2023-11-15T09:11:48.096Z,8.95
2023-11-15T09:14:16.231Z,9.45
2023-11-15T09:16:46.237Z,8.70
2023-11-15T09:19:18.526Z,9.32
2023-11-15T09:21:50.033Z,8.93
2023-11-15T09:24:19.936Z,10.55
2023-11-15T09:26:47.703Z,9.52
2023-11-15T09:29:16.038Z,9.02
2023-11-15T09:31:45.411Z,10.57
2023-11-15T09:34:13.582Z,9.50
2023-11-15T09:36:42.892Z,10.00
2023-11-15T09:39:11.763Z,8.93
2023-11-15T09:41:39.637Z,10.05
2023-11-15T09:44:11.211Z,9.65
2023-11-15T09:46:39.401Z,10.60
2023-11-15T09:49:08.609Z,9.07
2023-11-15T09:51:39.216Z,11.45
2023-11-15T09:54:15.992Z,10.32
2023-11-15T09:56:47.150Z,10.82
2023-11-15T09:59:16.351Z,12.55
2023-11-15T10:01:46.231Z,11.77
2023-11-15T10:04:30.393Z,11.57
2023-11-15T10:07:05.664Z,12.05
2023-11-15T10:09:37.201Z,11.45
2023-11-15T10:12:05.521Z,14.15
2023-11-15T10:14:34.321Z,14.32
2023-11-15T10:17:02.128Z,13.43
2023-11-15T10:19:30.466Z,14.95
2023-11-15T10:24:36.583Z,13.25
2023-11-15T10:27:10.009Z,13.05
2023-11-15T10:29:39.074Z,12.73
2023-11-15T10:32:07.301Z,12.73
2023-11-15T10:34:36.537Z,13.50
2023-11-15T10:37:25.928Z,15.15
2023-11-15T10:39:53.819Z,14.13
2023-11-15T10:42:24.429Z,13.60
2023-11-15T10:44:52.246Z,14.85
2023-11-15T10:47:24.359Z,14.32
2023-11-15T10:49:59.500Z,15.68
2023-11-15T10:52:27.788Z,12.55
2023-11-15T10:54:57.960Z,15.25
2023-11-15T10:57:29.309Z,14.73
2023-11-15T11:02:26.898Z,15.20
2023-11-15T11:04:55.385Z,14.77
2023-11-15T11:10:10.554Z,15.93
2023-11-15T11:12:38.539Z,15.60
2023-11-15T11:18:07.446Z,15.15
2023-11-15T11:20:37.583Z,14.18
2023-11-15T11:23:09.215Z,16.38
2023-11-15T11:25:40.849Z,15.23
2023-11-15T11:28:13.777Z,15.57
2023-11-15T11:30:43.357Z,15.05
2023-11-15T11:33:17.561Z,17.50
2023-11-15T11:35:47.735Z,14.93
2023-11-15T11:41:16.508Z,17.63
2023-11-15T11:43:44.230Z,14.90
2023-11-15T11:46:15.853Z,14.90
2023-11-15T11:48:44.054Z,13.07
2023-11-15T11:51:11.759Z,13.93
2023-11-15T11:53:40.990Z,13.90
2023-11-15T11:56:10.579Z,14.88
2023-11-15T11:58:39.775Z,16.90
2023-11-15T12:01:09.115Z,14.98
2023-11-15T12:03:41.454Z,13.50
2023-11-15T12:06:11.371Z,14.27
2023-11-15T12:08:41.486Z,11.70
2023-11-15T12:11:11.869Z,15.02
2023-11-15T12:13:49.338Z,13.48
2023-11-15T12:16:19.117Z,17.50
2023-11-15T12:21:43.568Z,15.50
2023-11-15T12:24:12.935Z,15.05
2023-11-15T12:26:44.717Z,12.68
2023-11-15T12:29:29.294Z,13.60
2023-11-15T12:31:58.455Z,17.63
2023-11-15T12:34:26.479Z,16.38
2023-11-15T12:36:54.255Z,12.93
2023-11-15T12:39:23.557Z,11.75
2023-11-15T12:41:54.430Z,13.85
2023-11-15T12:44:22.947Z,16.48
2023-11-15T12:46:53.121Z,16.30
2023-11-15T12:49:29.163Z,17.55
2023-11-15T12:51:56.920Z,12.95
2023-11-15T12:54:24.724Z,19.08
2023-11-15T12:57:13.250Z,17.50
2023-11-15T12:59:43.508Z,14.02
2023-11-15T13:02:13.815Z,18.77
2023-11-15T13:04:47.493Z,18.40
2023-11-15T13:07:17.145Z,17.55
2023-11-15T13:09:46.698Z,20.65
2023-11-15T13:12:30.321Z,19.10
2023-11-15T13:14:57.940Z,16.38
2023-11-15T13:17:28.863Z,22.17
2023-11-15T13:20:01.615Z,22.20
2023-11-15T13:22:32.052Z,16.73
2023-11-15T13:24:59.616Z,18.42
2023-11-15T13:27:27.790Z,18.35
2023-11-15T13:29:55.542Z,15.77
2023-11-15T13:32:23.841Z,22.23
2023-11-15T13:34:52.408Z,18.23
2023-11-15T13:37:20.528Z,24.15
2023-11-15T13:39:48.558Z,15.88
2023-11-15T13:42:16.478Z,15.38
2023-11-15T13:44:44.449Z,15.25
2023-11-15T13:47:13.939Z,20.27
2023-11-15T13:49:46.240Z,16.10
2023-11-15T13:52:14.377Z,16.50
2023-11-15T13:54:42.365Z,15.43
2023-11-15T13:57:10.193Z,16.23
2023-11-15T13:59:38.267Z,16.45
2023-11-15T14:02:06.453Z,15.73
2023-11-15T14:04:35.742Z,17.33
2023-11-15T14:07:03.809Z,15.52
2023-11-15T14:09:33.615Z,19.33
2023-11-15T14:12:01.876Z,18.52
2023-11-15T14:14:29.852Z,15.02
2023-11-15T14:16:58.078Z,14.45
2023-11-15T14:19:26.083Z,16.02
2023-11-15T14:21:53.812Z,17.52
2023-11-15T14:24:22.286Z,15.50
2023-11-15T14:26:50.186Z,13.98
2023-11-15T14:29:18.023Z,13.65
2023-11-15T14:31:46.016Z,13.10
2023-11-15T14:34:13.888Z,12.93
2023-11-15T14:36:46.679Z,14.23
2023-11-15T14:39:15.241Z,15.75
2023-11-15T14:41:43.328Z,12.15
2023-11-15T14:44:11.338Z,13.90
2023-11-15T14:46:38.952Z,16.13
2023-11-15T14:49:06.811Z,16.63
2023-11-15T14:51:34.480Z,16.40
2023-11-15T14:54:03.403Z,13.52
2023-11-15T14:56:31.070Z,12.45
2023-11-15T14:59:00.220Z,12.00
2023-11-15T15:01:28.960Z,14.32
2023-11-15T15:03:57.087Z,14.05
2023-11-15T15:06:26.054Z,15.13
2023-11-15T15:08:53.754Z,13.35
2023-11-15T15:11:21.368Z,13.75
2023-11-15T15:13:49.342Z,13.70
2023-11-15T15:16:21.607Z,14.20
2023-11-15T15:18:49.326Z,13.75
2023-11-15T15:21:16.912Z,12.82
2023-11-15T15:23:44.771Z,11.32
2023-11-15T15:26:17.400Z,12.05
2023-11-15T15:28:45.958Z,14.38
2023-11-15T15:31:15.344Z,13.57
2023-11-15T15:33:43.852Z,12.50
2023-11-15T15:36:12.024Z,12.40
2023-11-15T15:38:39.877Z,13.05
2023-11-15T15:41:08.816Z,13.45
2023-11-15T15:43:37.438Z,11.60
2023-11-15T15:46:06.476Z,15.43
2023-11-15T15:48:34.960Z,16.67
2023-11-15T15:51:02.701Z,13.68
2023-11-15T15:53:30.496Z,13.05
2023-11-15T15:55:58.388Z,12.63
2023-11-15T15:58:26.091Z,13.18
2023-11-15T16:00:53.908Z,12.82
2023-11-15T16:03:22.147Z,12.93
2023-11-15T16:05:50.284Z,11.77
2023-11-15T16:08:17.865Z,12.20
2023-11-15T16:10:46.259Z,12.35
2023-11-15T16:13:14.286Z,10.85
2023-11-15T16:15:41.968Z,11.40
2023-11-15T16:18:09.700Z,11.13
2023-11-15T16:20:38.915Z,11.88
2023-11-15T16:23:06.834Z,11.57
2023-11-15T16:25:34.360Z,10.27
2023-11-15T16:28:01.973Z,11.00
2023-11-15T16:30:33.147Z,12.63
2023-11-15T16:33:01.430Z,13.52
2023-11-15T16:35:31.634Z,12.55
2023-11-15T16:37:59.253Z,10.77
2023-11-15T16:40:29.189Z,12.35
2023-11-15T16:42:56.928Z,13.80
2023-11-15T16:45:28.141Z,12.48
2023-11-15T16:47:57.422Z,12.50
2023-11-15T16:50:25.099Z,12.18
2023-11-15T16:52:54.838Z,11.18
2023-11-15T16:55:22.557Z,12.98
2023-11-15T16:57:52.362Z,13.20
2023-11-15T17:00:21.898Z,12.63
2023-11-15T17:02:50.981Z,15.60
2023-11-15T17:05:21.402Z,14.23
2023-11-15T17:07:49.254Z,13.80
2023-11-15T17:10:16.904Z,14.68
2023-11-15T17:12:46.111Z,13.50
2023-11-15T17:15:14.045Z,16.15
2023-11-15T17:17:41.725Z,13.48
2023-11-15T17:20:09.980Z,11.07
2023-11-15T17:22:39.863Z,10.95
2023-11-15T17:25:19.177Z,12.43
2023-11-15T17:27:48.217Z,21.65
2023-11-15T17:30:16.836Z,19.95
2023-11-15T17:32:44.609Z,19.45
2023-11-15T17:35:12.578Z,16.00
2023-11-15T17:37:41.195Z,18.98
2023-11-15T17:40:10.724Z,12.55
2023-11-15T17:42:38.810Z,16.75
2023-11-15T17:45:08.285Z,17.65
2023-11-15T17:47:36.083Z,11.93
2023-11-15T17:50:05.641Z,13.45
2023-11-15T17:52:33.406Z,17.20
2023-11-15T17:55:03.963Z,14.95
2023-11-15T17:57:34.991Z,22.52
2023-11-15T18:00:06.714Z,15.02
2023-11-15T18:02:34.525Z,15.10
2023-11-15T18:05:02.716Z,15.45
2023-11-15T18:07:32.741Z,15.80
2023-11-15T18:10:00.865Z,16.08
2023-11-15T18:12:29.410Z,13.68
2023-11-15T18:14:57.217Z,15.63
2023-11-15T18:17:28.404Z,13.88
2023-11-15T18:19:56.095Z,12.07
2023-11-15T18:22:23.814Z,12.65
2023-11-15T18:24:54.711Z,14.10
2023-11-15T18:27:23.626Z,13.75
2023-11-15T18:29:51.287Z,12.07
2023-11-15T18:32:18.977Z,13.68
2023-11-15T18:34:46.687Z,12.38
2023-11-15T18:37:15.229Z,12.73
2023-11-15T18:39:42.794Z,12.75
2023-11-15T18:42:15.349Z,11.02
2023-11-15T18:44:43.807Z,12.73
2023-11-15T18:47:12.787Z,12.32
2023-11-15T18:49:43.669Z,10.38
2023-11-15T18:52:11.933Z,13.38
2023-11-15T18:54:40.355Z,13.77
2023-11-15T18:57:08.707Z,10.50
2023-11-15T18:59:39.797Z,14.90
2023-11-15T19:02:09.060Z,13.82
2023-11-15T19:04:36.810Z,14.25
2023-11-15T19:07:06.869Z,12.70
2023-11-15T19:09:37.923Z,11.73
2023-11-15T19:12:06.976Z,10.00
2023-11-15T19:14:35.709Z,10.13
2023-11-15T19:17:04.676Z,16.63
2023-11-15T19:19:32.316Z,12.88
2023-11-15T19:22:00.039Z,12.55
2023-11-15T19:24:27.631Z,12.85
2023-11-15T19:26:55.272Z,15.13
2023-11-15T19:29:22.965Z,12.80
2023-11-15T19:31:50.685Z,13.15
2023-11-15T19:34:18.835Z,15.38
2023-11-15T19:36:46.483Z,11.48
2023-11-15T19:39:16.101Z,14.05
2023-11-15T19:41:44.652Z,14.13
2023-11-15T19:44:12.309Z,13.77
2023-11-15T19:46:40.270Z,16.25
2023-11-15T19:49:09.267Z,15.27
2023-11-15T19:51:38.458Z,15.30
2023-11-15T19:54:08.998Z,12.85
2023-11-15T19:56:37.080Z,16.55
2023-11-15T19:59:05.348Z,15.35
2023-11-15T20:01:33.131Z,14.70
2023-11-15T20:04:05.038Z,14.48
2023-11-15T20:06:33.692Z,13.55
2023-11-15T20:09:01.637Z,13.15
2023-11-15T20:11:29.751Z,16.38
2023-11-15T20:13:57.400Z,15.77
2023-11-15T20:16:25.872Z,17.23
2023-11-15T20:18:53.688Z,15.43
2023-11-15T20:21:21.481Z,15.73
2023-11-15T20:23:49.367Z,15.50
2023-11-15T20:26:17.092Z,13.98
2023-11-15T20:28:45.215Z,13.57
2023-11-15T20:31:12.954Z,13.30
2023-11-15T20:33:42.920Z,15.85
2023-11-15T20:36:12.086Z,13.85
2023-11-15T20:38:39.814Z,14.52
2023-11-15T20:41:08.976Z,15.45
2023-11-15T20:43:37.291Z,13.05
2023-11-15T20:46:17.367Z,15.35
2023-11-15T20:48:47.763Z,14.50
2023-11-15T20:51:16.188Z,13.60
2023-11-15T20:53:45.151Z,15.30
2023-11-15T20:56:13.214Z,13.48
2023-11-15T20:58:41.768Z,13.90
2023-11-15T21:01:09.304Z,12.25
2023-11-15T21:03:37.012Z,13.52
2023-11-15T21:06:05.898Z,12.23
2023-11-15T21:08:36.407Z,11.93
2023-11-15T21:11:05.085Z,13.95
2023-11-15T21:13:32.713Z,14.68
2023-11-15T21:16:02.013Z,14.93
2023-11-15T21:18:29.560Z,12.63
2023-11-15T21:20:57.342Z,11.23
2023-11-15T21:23:26.036Z,12.68
2023-11-15T21:25:53.538Z,12.88
2023-11-15T21:28:21.430Z,13.73
2023-11-15T21:30:50.423Z,13.73
2023-11-15T21:33:18.090Z,12.32
2023-11-15T21:35:48.905Z,13.32
2023-11-15T21:38:18.098Z,13.55
2023-11-15T21:40:45.620Z,12.38
2023-11-15T21:43:13.197Z,14.10
2023-11-15T21:45:40.793Z,13.50
2023-11-15T21:48:08.630Z,11.93
2023-11-15T21:50:36.765Z,12.70
2023-11-15T21:53:05.574Z,11.80
2023-11-15T21:55:33.243Z,12.82
2023-11-15T21:58:03.217Z,12.07
2023-11-15T22:00:30.798Z,12.90
2023-11-15T22:02:58.513Z,13.20
2023-11-15T22:05:26.116Z,12.07
2023-11-15T22:07:54.966Z,11.55
2023-11-15T22:10:22.793Z,12.15
2023-11-15T22:12:50.468Z,13.35
2023-11-15T22:15:21.054Z,14.77
2023-11-15T22:17:49.292Z,13.13
2023-11-15T22:20:16.878Z,11.23
2023-11-15T22:22:44.556Z,13.18
2023-11-15T22:25:12.976Z,13.23
2023-11-15T22:27:40.575Z,14.18
2023-11-15T22:30:08.975Z,13.82
2023-11-15T22:32:37.010Z,13.55
2023-11-15T22:35:05.018Z,13.18
2023-11-15T22:37:34.330Z,13.85
2023-11-15T22:40:02.367Z,14.02
2023-11-15T22:42:32.755Z,10.75
2023-11-15T22:45:00.691Z,11.77
2023-11-15T22:47:28.409Z,13.13
2023-11-15T22:49:56.054Z,12.80
2023-11-15T22:52:23.565Z,11.10
2023-11-15T22:54:52.042Z,13.63
2023-11-15T22:57:19.756Z,13.45
2023-11-15T22:59:50.339Z,12.48
2023-11-15T23:04:47.007Z,10.73
2023-11-15T23:07:14.742Z,11.85
2023-11-15T23:09:43.312Z,11.88
2023-11-15T23:12:12.946Z,10.95
2023-11-15T23:14:40.484Z,11.65
2023-11-15T23:17:08.041Z,13.93
2023-11-15T23:19:35.700Z,13.38
2023-11-15T23:22:04.779Z,12.68
2023-11-15T23:24:32.469Z,13.20
2023-11-15T23:27:00.910Z,12.27
2023-11-15T23:29:29.512Z,12.02
2023-11-15T23:31:58.229Z,13.90
2023-11-15T23:34:25.898Z,13.23
2023-11-15T23:36:53.571Z,12.10
2023-11-15T23:39:24.534Z,11.75
2023-11-15T23:41:52.537Z,12.60
2023-11-15T23:44:20.225Z,12.23
2023-11-15T23:46:51.686Z,11.30
2023-11-15T23:49:20.396Z,13.18
2023-11-15T23:51:48.266Z,12.38
2023-11-15T23:54:15.923Z,13.52
2023-11-15T23:56:43.831Z,13.55
2023-11-15T23:59:11.513Z,12.25
